createdAt,value
2023-03-23T15:58:17.633Z,7.70
2023-03-23T16:00:49.343Z,7.10
2023-03-23T16:03:31.164Z,6.20
2023-03-23T16:06:03.138Z,5.90
2023-03-23T16:08:40.574Z,6.40
2023-03-23T16:11:16.270Z,6.40
2023-03-23T16:13:50.054Z,5.40
2023-03-23T16:16:48.860Z,5.30
2023-03-23T16:19:24.802Z,6.30
2023-03-23T16:22:03.483Z,6.80
2023-03-23T16:24:40.067Z,6.30
2023-03-23T16:27:14.265Z,7.00
2023-03-23T16:30:02.154Z,6.10
2023-03-23T16:35:19.810Z,5.60
2023-03-23T16:38:08.256Z,11.60
2023-03-23T16:40:55.068Z,18.10
2023-03-23T16:43:34.889Z,23.80
2023-03-23T16:46:15.208Z,25.10
2023-03-23T16:48:49.514Z,22.00
2023-03-23T16:51:29.014Z,15.10
2023-03-23T16:54:07.482Z,13.80
2023-03-23T16:56:48.005Z,9.90
2023-03-23T16:59:26.841Z,8.00
2023-03-23T17:02:27.900Z,7.50
2023-03-23T17:05:24.398Z,10.00
2023-03-23T17:08:12.924Z,10.50
2023-03-23T17:10:47.879Z,9.80
2023-03-23T17:13:23.601Z,7.70
2023-03-23T17:16:04.379Z,7.70
2023-03-23T17:18:33.120Z,9.10
2023-03-23T17:21:02.134Z,8.30
2023-03-23T17:23:39.929Z,7.80
2023-03-23T17:26:10.471Z,8.00
2023-03-23T17:31:16.509Z,7.20
2023-03-23T17:33:59.310Z,7.00
2023-03-23T17:36:28.504Z,6.10
2023-03-23T17:39:06.720Z,7.20
2023-03-23T17:41:38.104Z,7.20
2023-03-23T17:44:11.824Z,6.40
2023-03-23T17:46:42.258Z,7.70
2023-03-23T17:49:14.564Z,10.00
2023-03-23T17:51:50.280Z,75.60
2023-03-23T17:54:25.229Z,42.00
2023-03-23T17:56:54.397Z,19.90
2023-03-23T17:59:28.833Z,21.70
2023-03-23T18:02:02.151Z,10.10
2023-03-23T18:04:40.258Z,9.10
2023-03-23T18:07:17.833Z,9.00
2023-03-23T18:10:11.237Z,10.20
2023-03-23T18:12:48.476Z,11.90
2023-03-23T18:15:18.694Z,15.10
2023-03-23T18:18:05.948Z,12.60
2023-03-23T18:20:40.510Z,13.90
2023-03-23T18:23:12.341Z,18.30
2023-03-23T18:25:48.471Z,14.80
2023-03-23T18:28:37.981Z,13.60
2023-03-23T18:31:19.755Z,12.90
2023-03-23T18:34:01.688Z,18.60
2023-03-23T18:36:34.769Z,18.70
2023-03-23T18:39:12.439Z,23.50
2023-03-23T18:41:55.892Z,18.90
2023-03-23T18:44:27.807Z,19.70
2023-03-23T18:47:00.140Z,16.40
2023-03-23T18:49:37.031Z,15.30
2023-03-23T18:55:12.933Z,20.00
2023-03-23T18:57:50.339Z,22.30
2023-03-23T19:00:22.385Z,22.40
2023-03-23T19:03:00.962Z,16.80
2023-03-23T19:05:32.268Z,18.90
2023-03-23T19:08:06.101Z,17.90
2023-03-23T19:10:43.424Z,17.30
2023-03-23T19:13:16.708Z,15.60
2023-03-23T19:15:49.224Z,13.50
2023-03-23T19:18:19.865Z,11.70
2023-03-23T19:21:12.390Z,11.50
2023-03-23T19:23:47.053Z,12.50
2023-03-23T19:26:24.235Z,10.50
2023-03-23T19:31:36.396Z,12.20
2023-03-23T19:34:10.369Z,12.70
2023-03-23T19:39:08.302Z,8.90
2023-03-23T19:41:39.145Z,8.50
2023-03-23T19:44:08.092Z,7.40
2023-03-23T19:46:41.051Z,6.60
2023-03-23T19:49:11.755Z,14.70
2023-03-23T19:51:42.973Z,10.00
2023-03-23T19:54:13.921Z,11.10
2023-03-23T19:56:50.762Z,8.50
2023-03-23T19:59:22.495Z,9.50
2023-03-23T20:01:55.045Z,10.30
2023-03-23T20:04:29.215Z,12.70
2023-03-23T20:07:03.273Z,14.00
2023-03-23T20:09:40.894Z,14.30
2023-03-23T20:12:19.168Z,17.80
2023-03-23T20:14:53.249Z,21.10
2023-03-23T20:17:29.569Z,21.40
2023-03-23T20:19:58.486Z,19.90
2023-03-23T20:22:35.588Z,17.80
2023-03-23T20:25:08.827Z,19.00
2023-03-23T20:27:49.434Z,19.40
2023-03-23T20:30:30.860Z,22.30
2023-03-23T20:33:15.032Z,20.80
2023-03-23T20:35:51.699Z,21.30
2023-03-23T20:38:35.922Z,19.20
2023-03-23T20:41:18.067Z,16.40
2023-03-23T20:44:03.421Z,17.50
2023-03-23T20:46:32.809Z,20.40
2023-03-23T20:49:02.261Z,38.40
2023-03-23T20:51:37.099Z,34.40
2023-03-23T20:54:07.262Z,18.60
2023-03-23T20:56:37.134Z,16.60
2023-03-23T20:59:08.392Z,15.60
2023-03-23T21:01:40.485Z,14.20
2023-03-23T21:04:17.613Z,14.40
2023-03-23T21:06:51.439Z,14.10
2023-03-23T21:09:28.177Z,10.80
2023-03-23T21:12:05.944Z,11.20
2023-03-23T21:14:44.439Z,11.50
2023-03-23T21:17:30.350Z,12.10
2023-03-23T21:20:12.471Z,11.40
2023-03-23T21:22:43.975Z,10.60
2023-03-23T21:25:34.870Z,10.70
2023-03-23T21:28:12.254Z,11.40
2023-03-23T21:30:50.232Z,14.60
2023-03-23T21:33:21.665Z,17.50
2023-03-23T21:36:00.567Z,19.50
2023-03-23T21:38:36.736Z,14.30
2023-03-23T21:41:16.238Z,13.30
2023-03-23T21:43:50.437Z,12.20
2023-03-23T21:46:24.378Z,11.80
2023-03-23T21:48:58.950Z,10.30
2023-03-23T21:51:54.912Z,10.50
2023-03-23T21:54:32.216Z,9.60
2023-03-23T21:57:22.953Z,8.40
2023-03-23T22:00:14.682Z,8.80
2023-03-23T22:02:45.912Z,9.30
2023-03-23T22:05:24.161Z,8.90
2023-03-23T22:08:01.073Z,9.00
2023-03-23T22:10:29.792Z,8.60
2023-03-23T22:13:01.354Z,8.30
2023-03-23T22:15:36.069Z,7.40
2023-03-23T22:18:18.647Z,8.90
2023-03-23T22:20:50.908Z,7.90
2023-03-23T22:23:26.422Z,8.70
2023-03-23T22:25:57.709Z,7.30
2023-03-23T22:28:35.121Z,7.20
2023-03-23T22:31:18.236Z,7.90
2023-03-23T22:33:48.348Z,9.60
2023-03-23T22:36:24.009Z,10.50
2023-03-23T22:38:55.931Z,11.10
2023-03-23T22:41:35.153Z,13.20
2023-03-23T22:44:17.828Z,13.90
2023-03-23T22:46:51.939Z,12.90
2023-03-23T22:49:21.090Z,12.10
2023-03-23T22:51:52.807Z,12.80
2023-03-23T22:54:26.586Z,14.90
2023-03-23T22:57:01.021Z,14.60
2023-03-23T22:59:38.251Z,15.10
2023-03-23T23:02:11.787Z,15.10
2023-03-23T23:04:43.014Z,14.70
2023-03-23T23:07:19.182Z,13.10
2023-03-23T23:09:51.756Z,11.70
2023-03-23T23:12:35.106Z,11.90
2023-03-23T23:15:16.536Z,14.00
2023-03-23T23:17:47.338Z,13.60
2023-03-23T23:20:21.048Z,11.70
2023-03-23T23:22:58.672Z,13.20
2023-03-23T23:25:36.895Z,12.40
2023-03-23T23:28:19.474Z,12.80
2023-03-23T23:30:49.369Z,12.40
2023-03-23T23:33:20.428Z,13.40
2023-03-23T23:35:49.650Z,12.60
2023-03-23T23:38:28.067Z,12.50
2023-03-23T23:41:09.493Z,12.10
2023-03-23T23:43:41.079Z,11.60
2023-03-23T23:46:14.923Z,11.10
2023-03-23T23:48:48.745Z,10.30
2023-03-23T23:51:17.528Z,10.50
2023-03-23T23:56:35.892Z,9.80
2023-03-23T23:59:15.373Z,9.40
